Create Custom Reports and Graphics: Custom Report

Latest Observations

Map

15 Minute Data

Latest Observation

40 Stations

15 Minute Data | America/Los_Angeles
as of 12/2/22 5:14 AM PST
Station Date Time Storm Total (In) Temp (°F) RH (%) Dew Pt (°F) Wind Dir (°) Wind Spd (mph) Wind Gust (mph) Solar Rad (W/m2) Latest Rain (In) Daily Rain (In) Daily Max Temp (°F) Daily Min Temp (°F) Daily Max Wind (mph) Daily ETo (in) Daily Leaf Wet Hrs (hrs)
Colony 1 12/2/22 0500 0.81 32.4   17.9 98   33 31.9   7.0 ENE | 78 0.6   6.0 1.6   10.5 0   0 0.00 0.01 36.0   14.5 32.3   12.5 2.9   12.1 0.000   0.001 -
Colony 2 12/2/22 0500 0.74 31.6   17.9 97   31 30.9   7.6 NE | 50 1.7   6.8 2.5   11.4 0   0 0.00 0.01 35.5   14.3 31.5   13.1 3.7   10.3 0.000   0.002 -
Gill Ranch 12/2/22 0500 1.01 31.6   19.2 94   32 30.1   8.0 NE | 37 0.8   8.3 1.7   15.0 0   0 0.00 0.00 36.9   14.2 31.3   14.3 6.1   10.6 0.000   0.002 -
5 Wells 12/2/22 0500 0.81 32.4   17.4 100   38 32.4   5.0 NNW | 331 1.0   7.9 2.6   14.9 1   3 0.00 0.01 34.5   15.3 32.0   10.2 4.9   12.6 0.000   0.001 -
Simmerhorn 12/2/22 0500 - 32.7   17.0 100   36 32.7   5.4 - - - - - - 36.9   12.9 31.5   11.3 - - -
Galt-East 12/2/22 0500 0.54 30.7   19.3 100   32 30.7   9.1 NNW | 348 1.1   8.1 2.5   12.6 0   0 0.00 0.00 35.9   14.2 30.0   12.8 3.6   11.5 0.000   0.001 -
Borden Hills 12/2/22 0500 0.95 33.3   17.2 96   30 32.2   7.0 N | 356 1.5   8.6 2.9   14.6 0   0 0.00 0.00 37.1   13.7 32.9   9.9 5.1   12.8 0.000   0.003 -
Sierra Loma-L27 12/2/22 0500 0.95 32.1   17.6 96   29 31.2   8.0 NNW | 343 1.8   7.2 3.0   14.3 - 0.00 0.00 37.5   12.6 31.7   11.0 5.3   12.0 - -
Lone Oak-L28 12/2/22 0500 0.97 27.2   20.4 98   25 26.6   12.6 SE | 127 0.1   8.0 0.8   12.8 - 0.00 0.00 32.7   15.4 26.8   9.6 5.4   9.3 - -
Lockeford 12/2/22 0500 0.99 30.8   17.6 94   23 29.2   10.2 N | 0 0.0   6.9 0.0   14.2 0   0 0.00 0.00 35.5   13.7 29.8   11.5 3.1   11.1 0.000   0.001 1.9   1.9
Kost Rd 12/2/22 0500 0.61 28.4   20.4 100   29 28.4   11.5 NNW | 331 0.1   5.4 1.1   10.7 0   0 0.00 0.01 34.1   15.6 28.3   12.9 2.7   9.1 0.000   0.000 -
Thornton 12/2/22 0500 0.57 27.4   20.1 90   23 25.0   12.4 N | 0 0.0   4.1 0.0   8.4 0   0 0.00 0.00 31.0   16.9 27.1   12.2 0.0   10.1 0.000   0.000 5.0   5.0
Lodi (LangeTwins) 12/2/22 0500 0.66 28.0   21.3 100   30 28.0   11.8 N | 0 0.0   5.6 0.0   10.1 0   0 0.00 0.00 32.5   16.9 27.6   12.5 0.0   15.8 0.000   0.001 0.9   0.9
Gilbeau Ranch 12/2/22 0500 0.83 31.6   17.7 97   34 30.9   6.4 NNW | 339 0.8   9.2 1.4   13.7 0   0 0.00 0.01 35.0   14.4 31.2   10.9 3.7   11.5 0.000   0.002 -
Galt West 12/2/22 0500 0.56 29.5   18.4 96   26 28.4   10.0 N | 0 0.0   6.2 0.0   11.3 0   0 0.00 0.00 33.4   14.8 28.2   14.0 3.4   8.3 0.000   0.000 -
Valley Oak 12/2/22 0500 0.60 26.2   21.3 100   34 26.2   10.7 NW | 308 0.1   3.5 0.7   7.7 0   0 0.00 0.00 30.3   17.8 25.9   12.4 3.3   5.8 0.000   0.000 -
Guard Rd (Lodi WSW) 12/2/22 0500 0.61 26.7   18.6 96   20 25.6   12.5 NNE | 25 1.1   3.6 2.1   8.3 0   0 0.00 0.00 35.4   12.2 25.9   11.0 3.1   7.4 0.000   0.000 0.0   0.0
Linden 12/2/22 0500 1.16 28.7   19.4 98   28 28.2   10.7 N | 0 0.0   5.3 0.0   12.9 - - 0.00 36.8   12.0 28.3   15.2 2.3   10.6 - 5.0   5.0
DeVries Road-North 12/2/22 0500 0.60 29.3   19.5 99   29 29.1   10.3 N | 0 0.0   6.2 0.0   12.0 0   0 0.00 0.00 35.2   14.2 28.9   10.5 4.3   7.8 0.000   0.001 -
Acampo 12/2/22 0500 0.62 28.4   20.9 100   38 28.4   8.3 N | 0 0.0   4.8 0.0   9.5 0   0 - 0.00 33.8   15.6 28.3   12.5 2.4   9.4 0.000   0.001 2.2   2.1
Acampo (Woodbridge) 12/2/22 0500 0.69 31.9   16.4 100   30 31.8   7.2 NW | 326 1.4   6.1 1.8   9.5 0   0 0.00 0.00 37.0   11.5 31.2   10.0 5.5   6.6 0.000   0.001 -
Lodi West 12/1/22 2115 0.60 40.7   4.6 87   15 37.2   0.4 SW | 228 1.3   0.3 3.5   0.4 0   0 0.00 0.60 49.6   12.9 39.3   10.3 19.8   13.2 0.011   0.039 7.3   5.5
Teresi-Alpine Rd (East Lodi) 12/2/22 0500 0.83 57.1   0.0 3   0 -23.2   0.0 SSE | 161 0.9   5.3 2.1   10.3 0   0 0.00 0.00 57.1   0.0 57.1   0.0 3.7   8.7 0.005   0.001 -
Victor - N (Katusha) 12/2/22 0500 - 31.3   17.2 97   33 30.6   6.2 N | 0 0.0   7.0 0.0   11.8 - 0.00 0.00 35.5   13.3 30.9   9.7 2.1   9.7 - -
Live Oak 12/2/22 0500 0.78 29.6   19.0 100   31 29.6   9.2 NNW | 335 1.1   6.3 1.5   11.6 0   0 0.00 0.01 34.3   14.8 29.4   9.3 3.3   10.1 0.000   0.001 -
Sheldon 12/2/22 0500 0.60 28.9   20.3 98   31 28.5   10.3 N | 0 0.0   6.0 0.0   10.1 0   0 0.00 0.00 32.8   17.4 28.4   15.6 3.8   8.4 0.000   0.001 2.1   1.8
Sloughhouse 12/2/22 0500 0.75 29.1   21.2 100   39 29.1   8.5 N | 0 0.0   8.7 0.0   15.5 0   0 0.00 0.00 34.5   16.7 28.7   13.5 5.8   11.4 0.000   0.002 -
Utter - Wilson 12/2/22 0500 0.42 27.6   17.9 100   16 27.6   13.2 NNE | 21 1.0   5.6 2.1   9.0 0   0 0.00 0.00 32.2   15.1 27.1   17.4 2.9   8.2 0.000   0.000 -
Clarksburg 12/2/22 0500 0.41 32.4   14.4 94   21 31.0   7.8 NNE | 18 1.7   6.2 2.6   9.9 0   0 0.00 0.00 35.9   12.3 30.9   11.5 4.2   8.9 0.000   0.001 -
Clarksburg-3A2 12/2/22 0500 0.42 30.2   16.6 100   25 30.1   9.1 NW | 314 0.7   8.0 1.1   11.3 0   0 0.00 0.00 34.2   13.7 29.9   13.3 4.1   12.0 0.000   0.002 -
Gorter - Wilson 12/2/22 0445 0.42 28.9   16.9 100   22 28.9   10.6 NNE | 19 0.4   6.5 1.2   10.0 0   0 0.00 0.00 31.1   15.1 27.0   14.9 2.6   8.7 0.000   0.000 -
Hood 12/2/22 0500 0.46 26.1   19.7 99   18 25.8   14.4 ENE | 59 0.0   5.0 0.5   8.9 0   0 0.00 0.00 32.0   14.8 25.8   15.7 3.1   6.5 0.000   0.000 -
Courtland-C3 12/2/22 0500 0.46 28.5   17.7 98   24 27.9   10.3 NNW | 344 0.8   7.5 1.8   10.4 - 0.00 0.00 35.9   10.6 28.1   14.0 4.8   8.5 - -
Pacific Fruit 12/2/22 0500 0.44 30.8   16.1 98   20 30.4   10.2 NNE | 17 2.0   4.8 3.3   9.8 0   0 0.00 0.00 34.4   13.3 27.5   14.8 3.6   9.5 0.000   0.001 -
Ryer Island South 12/2/22 0500 0.59 34.1   12.8 96   23 33.0   5.6 NW | 307 2.5   3.0 4.0   5.4 0   0 0.00 0.00 40.5   7.9 26.2   17.2 4.0   6.0 0.000   0.000 2.0   2.0
Farmington (Mobley100) 12/2/22 0500 - 30.6   17.7 97   28 30.0   8.6 N | 0 0.0   3.3 0.0   8.9 - - - 35.4   13.2 30.2   13.1 1.8   7.5 - -
Collegeville 12/2/22 0500 0.86 31.2   16.7 99   27 30.8   8.3 N | 0 0.0   4.2 0.0   9.9 0   0 0.00 0.00 34.3   13.9 30.2   9.3 2.4   8.0 0.000   0.000 -
Oakdale North (28 Mile Rd) 12/2/22 0500 - 30.7   16.8 97   26 29.9   8.5 ENE | 61 0.1   3.1 2.0   6.8 - - - 34.5   13.1 30.5   13.2 2.1   6.7 - -
Escalon 12/2/22 0500 0.89 30.8   17.8 100   29 30.8   8.9 N | 0 0.0   3.7 0.0   8.9 - 0.00 0.00 34.9   13.8 30.7   11.4 0.6   8.5 - 3.0   3.0
Claussen 12/2/22 0500 0.55 30.6   20.0 98   28 30.2   11.3 WNW | 283 1.0   5.8 1.4   10.6 0   0 0.00 0.00 41.5   9.6 30.4   8.2 5.7   6.4 0.000   0.001 -
Max     1.16 57.1 100 33.0 - 2.5 4.0 1 0.00 0.01 57.1 57.1 6.1 0.005 5.0
Avg     0.69 30.8 95 28.2 - 0.6 1.3 0 0.00 - - - - - -
Min     0.41 26.1 3 -23.2 - 0.0 0.0 0 0.00 0.00 30.3 25.8 0.0 0.000 0.0

Latest Observations

Map

Hourly Data